createdAt,value
2023-03-13T00:01:49.659Z,100.00
2023-03-13T00:06:52.107Z,100.00
2023-03-13T00:11:54.746Z,100.00
2023-03-13T00:16:57.329Z,100.00
2023-03-13T00:21:59.982Z,100.00
2023-03-13T00:27:05.236Z,100.00
2023-03-13T00:32:07.900Z,100.00
2023-03-13T00:37:10.342Z,100.00
2023-03-13T00:42:12.762Z,100.00
2023-03-13T00:47:15.198Z,100.00
2023-03-13T00:52:19.331Z,100.00
2023-03-13T00:57:21.930Z,100.00
2023-03-13T01:02:24.499Z,100.00
2023-03-13T01:07:27.552Z,100.00
2023-03-13T01:12:30.598Z,100.00
2023-03-13T01:17:33.221Z,100.00
2023-03-13T01:22:35.731Z,100.00
2023-03-13T01:27:38.163Z,100.00
2023-03-13T01:32:41.264Z,100.00
2023-03-13T01:37:43.676Z,97.12
2023-03-13T01:43:00.431Z,97.87
2023-03-13T01:48:05.167Z,97.75
2023-03-13T01:53:21.839Z,99.50
2023-03-13T01:58:25.291Z,98.23
2023-03-13T02:03:29.636Z,97.56
2023-03-13T02:08:45.189Z,97.78
2023-03-13T02:13:50.216Z,96.89
2023-03-13T02:18:52.963Z,98.42
2023-03-13T02:24:13.025Z,99.69
2023-03-13T02:29:18.666Z,100.00
2023-03-13T02:34:27.801Z,100.00
2023-03-13T02:39:34.215Z,100.00
2023-03-13T02:44:41.496Z,100.00
2023-03-13T02:49:45.015Z,99.50
2023-03-13T02:54:51.639Z,99.64
2023-03-13T02:59:56.091Z,99.40
2023-03-13T03:04:59.042Z,100.00
2023-03-13T03:10:01.644Z,100.00
2023-03-13T03:15:05.143Z,100.00
2023-03-13T03:20:12.190Z,100.00
2023-03-13T03:25:18.162Z,100.00
2023-03-13T03:30:23.085Z,100.00
2023-03-13T03:35:27.413Z,100.00
2023-03-13T03:40:30.382Z,100.00
2023-03-13T03:45:33.011Z,100.00
2023-03-13T03:50:35.659Z,100.00
2023-03-13T03:55:38.039Z,100.00
2023-03-13T04:00:43.693Z,100.00
2023-03-13T04:05:45.895Z,100.00
2023-03-13T04:10:49.460Z,100.00
2023-03-13T04:15:53.290Z,100.00
2023-03-13T04:21:02.842Z,100.00
2023-03-13T04:26:08.005Z,100.00
2023-03-13T04:31:11.194Z,100.00
2023-03-13T04:36:31.857Z,100.00
2023-03-13T04:41:49.367Z,100.00
2023-03-13T04:47:21.461Z,100.00
2023-03-13T04:52:38.095Z,100.00
2023-03-13T04:58:00.730Z,100.00
2023-03-13T05:03:21.775Z,100.00
2023-03-13T05:08:46.527Z,100.00
2023-03-13T05:14:04.595Z,100.00
2023-03-13T05:19:23.280Z,100.00
2023-03-13T05:24:38.356Z,100.00
2023-03-13T05:29:54.005Z,100.00
2023-03-13T05:35:19.363Z,100.00
2023-03-13T05:40:24.378Z,100.00
2023-03-13T05:45:43.539Z,100.00
2023-03-13T05:50:51.737Z,100.00
2023-03-13T05:56:17.013Z,100.00
2023-03-13T06:01:39.056Z,100.00
2023-03-13T06:06:50.660Z,100.00
2023-03-13T06:11:55.007Z,100.00
2023-03-13T06:16:57.824Z,100.00
2023-03-13T06:22:02.324Z,100.00
2023-03-13T06:27:04.420Z,100.00
2023-03-13T06:32:07.232Z,100.00
2023-03-13T06:37:09.437Z,100.00
2023-03-13T06:42:11.496Z,100.00
2023-03-13T06:47:15.534Z,100.00
2023-03-13T06:52:19.381Z,100.00
2023-03-13T06:57:22.406Z,100.00
2023-03-13T07:02:24.720Z,100.00
2023-03-13T07:07:31.688Z,100.00
2023-03-13T07:12:37.858Z,100.00
2023-03-13T07:17:39.987Z,100.00
2023-03-13T07:22:42.007Z,100.00
2023-03-13T07:27:44.027Z,100.00
2023-03-13T07:32:46.224Z,100.00
2023-03-13T07:37:48.661Z,100.00
2023-03-13T07:42:50.838Z,100.00
2023-03-13T07:47:57.673Z,100.00
2023-03-13T07:52:59.727Z,100.00
2023-03-13T07:58:01.771Z,100.00
2023-03-13T08:03:07.489Z,100.00
2023-03-13T08:08:10.282Z,100.00
2023-03-13T08:13:12.797Z,100.00
2023-03-13T08:18:14.824Z,100.00
2023-03-13T08:23:16.989Z,100.00
2023-03-13T08:28:19.392Z,100.00
2023-03-13T08:33:21.873Z,100.00
2023-03-13T08:38:24.039Z,100.00
2023-03-13T08:43:31.388Z,100.00
2023-03-13T08:48:36.579Z,100.00
2023-03-13T08:53:40.962Z,100.00
2023-03-13T08:58:43.562Z,100.00
2023-03-13T09:03:46.009Z,100.00
2023-03-13T09:08:48.731Z,100.00
2023-03-13T09:13:51.766Z,99.42
2023-03-13T09:18:53.948Z,98.31
2023-03-13T09:23:56.597Z,96.64
2023-03-13T09:28:59.645Z,95.28
2023-03-13T09:34:02.749Z,94.97
2023-03-13T09:39:04.839Z,93.96
2023-03-13T09:44:20.206Z,93.71
2023-03-13T09:49:48.832Z,87.43
2023-03-13T09:55:05.474Z,83.52
2023-03-13T10:00:30.172Z,82.20
2023-03-13T10:05:33.778Z,80.39
2023-03-13T10:11:04.648Z,75.14
2023-03-13T10:16:23.038Z,72.22
2023-03-13T10:21:37.135Z,68.79
2023-03-13T10:26:40.003Z,68.70
2023-03-13T10:31:55.272Z,64.39
2023-03-13T10:37:01.992Z,67.23
2023-03-13T10:42:29.089Z,71.16
2023-03-13T10:47:35.876Z,74.31
2023-03-13T10:52:44.942Z,70.22
2023-03-13T10:58:04.782Z,62.45
2023-03-13T11:03:20.150Z,61.51
2023-03-13T11:08:29.153Z,62.14
2023-03-13T11:13:37.230Z,63.46
2023-03-13T11:18:48.526Z,67.02
2023-03-13T11:24:04.537Z,66.87
2023-03-13T11:29:27.086Z,65.95
2023-03-13T11:34:55.060Z,61.00
2023-03-13T11:40:31.961Z,49.17
2023-03-13T11:45:49.231Z,47.38
2023-03-13T11:51:49.636Z,47.34
2023-03-13T11:56:58.609Z,45.09
2023-03-13T12:02:25.104Z,49.78
2023-03-13T12:08:01.860Z,52.61
2023-03-13T12:13:18.572Z,53.94
2023-03-13T12:18:46.002Z,54.86
2023-03-13T12:24:40.357Z,54.68
2023-03-13T12:30:05.423Z,50.48
2023-03-13T12:35:29.049Z,48.15
2023-03-13T12:40:55.308Z,46.38
2023-03-13T12:45:57.318Z,47.19
2023-03-13T12:51:33.737Z,46.20
2023-03-13T12:57:14.536Z,47.86
2023-03-13T13:02:25.657Z,49.00
2023-03-13T13:07:38.685Z,46.95
2023-03-13T13:12:47.052Z,48.31
2023-03-13T13:18:22.035Z,47.79
2023-03-13T13:23:34.271Z,45.71
2023-03-13T13:28:36.595Z,48.52
2023-03-13T13:33:41.141Z,51.23
2023-03-13T13:38:43.553Z,52.80
2023-03-13T13:43:50.084Z,52.95
2023-03-13T13:49:07.785Z,51.84
2023-03-13T13:54:18.845Z,50.24
2023-03-13T13:59:21.139Z,51.87
2023-03-13T14:04:36.264Z,48.79
2023-03-13T14:09:46.493Z,49.66
2023-03-13T14:14:48.694Z,47.45
2023-03-13T14:19:51.090Z,48.33
2023-03-13T14:24:58.989Z,45.77
2023-03-13T14:30:09.457Z,40.83
2023-03-13T14:35:20.969Z,39.10
2023-03-13T14:40:33.370Z,39.96
2023-03-13T14:45:37.179Z,38.48
2023-03-13T14:50:45.888Z,43.18
2023-03-13T14:55:49.482Z,46.74
2023-03-13T15:00:51.974Z,48.08
2023-03-13T15:06:12.537Z,49.75
2023-03-13T15:11:29.034Z,50.20
2023-03-13T15:16:31.174Z,50.67
2023-03-13T15:21:35.065Z,51.16
2023-03-13T15:26:37.101Z,51.50
2023-03-13T15:31:40.180Z,51.52
2023-03-13T15:36:42.785Z,51.85
2023-03-13T15:41:44.916Z,50.98
2023-03-13T15:46:48.105Z,52.04
2023-03-13T15:51:50.814Z,52.40
2023-03-13T15:56:53.068Z,52.81
2023-03-13T16:01:55.061Z,52.58
2023-03-13T16:06:58.171Z,52.58
2023-03-13T16:12:00.281Z,52.63
2023-03-13T16:17:10.537Z,52.78
2023-03-13T16:22:12.977Z,52.83
2023-03-13T16:27:18.060Z,54.55
2023-03-13T16:32:24.435Z,55.85
2023-03-13T16:37:26.519Z,56.97
2023-03-13T16:42:28.542Z,56.51
2023-03-13T16:47:31.717Z,57.13
2023-03-13T16:52:33.785Z,57.57
2023-03-13T16:57:36.654Z,57.97
2023-03-13T17:02:39.229Z,58.64
2023-03-13T17:07:43.233Z,58.69
2023-03-13T17:12:45.610Z,59.27
2023-03-13T17:17:52.759Z,61.22
2023-03-13T17:22:56.668Z,62.89
2023-03-13T17:27:59.121Z,64.00
2023-03-13T17:33:01.260Z,64.70
2023-03-13T17:38:03.389Z,65.63
2023-03-13T17:43:05.696Z,65.63
2023-03-13T17:48:13.376Z,65.72
2023-03-13T17:53:15.529Z,66.63
2023-03-13T17:58:18.467Z,67.91
2023-03-13T18:03:20.795Z,68.77
2023-03-13T18:08:23.076Z,69.22
2023-03-13T18:13:25.122Z,69.29
2023-03-13T18:18:27.241Z,69.57
2023-03-13T18:23:29.548Z,70.72
2023-03-13T18:28:31.647Z,71.30
2023-03-13T18:33:33.675Z,71.25
2023-03-13T18:38:35.874Z,70.25
2023-03-13T18:43:38.292Z,76.75
2023-03-13T18:48:40.315Z,92.39
2023-03-13T18:53:43.378Z,97.56
2023-03-13T18:58:50.146Z,100.00
2023-03-13T19:03:53.449Z,100.00
2023-03-13T19:09:42.812Z,100.00
2023-03-13T19:14:42.711Z,100.00
2023-03-13T19:19:45.122Z,100.00
2023-03-13T19:24:47.636Z,100.00
2023-03-13T19:29:50.443Z,100.00
2023-03-13T19:34:53.139Z,100.00
2023-03-13T19:39:55.523Z,100.00
2023-03-13T19:44:57.912Z,100.00
2023-03-13T19:50:00.421Z,100.00
2023-03-13T19:55:05.070Z,100.00
2023-03-13T20:00:14.068Z,100.00
2023-03-13T20:05:16.761Z,100.00
2023-03-13T20:10:19.481Z,100.00
2023-03-13T20:15:22.400Z,100.00
2023-03-13T20:20:24.803Z,100.00
2023-03-13T20:25:28.760Z,100.00
2023-03-13T20:30:31.270Z,100.00
2023-03-13T20:35:34.208Z,100.00
2023-03-13T20:40:37.163Z,100.00
2023-03-13T20:45:39.581Z,100.00
2023-03-13T20:50:42.768Z,100.00
2023-03-13T20:55:45.562Z,100.00
2023-03-13T21:00:48.909Z,100.00
2023-03-13T21:05:51.677Z,100.00
2023-03-13T21:10:54.134Z,100.00
2023-03-13T21:16:03.294Z,100.00
2023-03-13T21:21:08.263Z,100.00
2023-03-13T21:26:10.871Z,100.00
2023-03-13T21:31:16.199Z,100.00
2023-03-13T21:36:21.300Z,100.00
2023-03-13T21:41:23.875Z,100.00
2023-03-13T21:46:33.396Z,100.00
2023-03-13T21:51:35.860Z,100.00
2023-03-13T21:56:38.488Z,100.00
2023-03-13T22:01:42.407Z,100.00
2023-03-13T22:06:44.948Z,100.00
2023-03-13T22:11:47.536Z,100.00
2023-03-13T22:16:50.446Z,100.00
2023-03-13T22:21:53.059Z,100.00
2023-03-13T22:26:55.476Z,100.00
2023-03-13T22:31:57.983Z,100.00
2023-03-13T22:37:00.492Z,100.00
2023-03-13T22:42:03.656Z,100.00
2023-03-13T22:47:06.115Z,100.00
2023-03-13T22:52:08.730Z,100.00
2023-03-13T22:57:11.122Z,100.00
2023-03-13T23:02:13.556Z,100.00
2023-03-13T23:07:16.033Z,100.00
2023-03-13T23:12:18.562Z,100.00
2023-03-13T23:17:21.577Z,100.00
2023-03-13T23:22:29.107Z,100.00
2023-03-13T23:27:32.066Z,100.00
2023-03-13T23:32:39.401Z,100.00
2023-03-13T23:37:41.828Z,100.00
2023-03-13T23:42:50.512Z,100.00
2023-03-13T23:47:53.978Z,100.00
2023-03-13T23:52:56.352Z,100.00
2023-03-13T23:57:58.895Z,100.00
